Rachel — D5CG4 — position and weather

sailwx.info

Track history (hours):
 
Tides and Currents Weather Stations Pressure Air Temp Water Temp Dewpoint Dewpoint Depression Visibility Wind Speed Wind Dir Waves Ship Positions

Rachel

Last reported at 2016-May-25 01:30 UTC. Time now 2016-May-27 04:37 UTC.
Position N 17°51' W 017°13'.

Length 189 m; draft 6.5 m.

Type: Cargo ship. MMSI: 636015692.

Date/timePositionNaut miles runAvg speedWind from/ knotsBaromVisibWave heightAir tempDewpointWater temp
2016-May-25 01:30N 17°51' W 017°13'3511.8
2016-May-24 22:32N 17°55' W 016°36'33 0.7
2016-May-22 23:21N 17°59' W 016°02'  
2016-May-15 22:04N 35°58' W 005°35'5 9.5
2016-May-15 21:33N 35°60' W 005°29'8 7.9
2016-May-15 20:33N 36°05' W 005°23'2 2.3
2016-May-15 19:31N 36°08' W 005°22'0 0.2
2016-May-15 18:28N 36°08' W 005°22'0 0.0
2016-May-15 17:22N 36°08' W 005°22'0 0.1
2016-May-15 16:31N 36°08' W 005°22'0 0.0
2016-May-15 15:33N 36°08' W 005°22'4 3.5
2016-May-15 14:33N 36°05' W 005°19'2 2.2
2016-May-15 13:34N 36°05' W 005°16'  
Track history (hours):
 
Tides and Currents Weather Stations Pressure Air Temp Water Temp Dewpoint Dewpoint Depression Visibility Wind Speed Wind Dir Waves Ship Positions

Rachel

Last reported at 2016-May-25 01:30 UTC. Time now 2016-May-27 04:37 UTC.
Position N 17°51' W 017°13'.

Length 189 m; draft 6.5 m.

Type: Cargo ship. MMSI: 636015692.

Date/timePositionNaut miles runAvg speedWind from/ knotsBaromVisibWave heightAir tempDewpointWater temp
2016-May-25 01:30N 17°51' W 017°13'3511.8
2016-May-24 22:32N 17°55' W 016°36'33 0.7
2016-May-22 23:21N 17°59' W 016°02'  
2016-May-15 22:04N 35°58' W 005°35'5 9.5
2016-May-15 21:33N 35°60' W 005°29'8 7.9
2016-May-15 20:33N 36°05' W 005°23'2 2.3
2016-May-15 19:31N 36°08' W 005°22'0 0.2
2016-May-15 18:28N 36°08' W 005°22'0 0.0
2016-May-15 17:22N 36°08' W 005°22'0 0.1
2016-May-15 16:31N 36°08' W 005°22'0 0.0
2016-May-15 15:33N 36°08' W 005°22'4 3.5
2016-May-15 14:33N 36°05' W 005°19'2 2.2
2016-May-15 13:34N 36°05' W 005°16'  

Dump ship's entire track history